createdAt,value
2023-01-23T00:03:14.148Z,3.77
2023-01-23T00:08:17.240Z,3.76
2023-01-23T00:13:25.787Z,3.81
2023-01-23T00:18:27.810Z,3.82
2023-01-23T00:23:34.168Z,3.83
2023-01-23T00:28:37.416Z,3.81
2023-01-23T00:33:41.095Z,3.79
2023-01-23T00:38:43.839Z,3.78
2023-01-23T00:43:50.818Z,3.74
2023-01-23T00:48:56.116Z,3.78
2023-01-23T00:53:58.889Z,3.80
2023-01-23T00:59:04.556Z,3.81
2023-01-23T01:04:07.036Z,3.82
2023-01-23T01:09:14.591Z,3.80
2023-01-23T01:14:19.457Z,3.78
2023-01-23T01:19:22.303Z,3.83
2023-01-23T01:24:24.973Z,3.84
2023-01-23T01:29:27.057Z,3.84
2023-01-23T01:34:31.531Z,3.85
2023-01-23T01:39:33.520Z,3.87
2023-01-23T01:45:03.768Z,3.89
2023-01-23T01:50:07.239Z,3.84
2023-01-23T01:55:15.404Z,3.80
2023-01-23T02:00:19.456Z,3.74
2023-01-23T02:05:36.000Z,3.67
2023-01-23T02:10:44.222Z,3.57
2023-01-23T02:15:47.502Z,3.60
2023-01-23T02:20:55.898Z,3.60
2023-01-23T02:26:28.021Z,3.58
2023-01-23T02:31:32.118Z,3.53
2023-01-23T02:36:35.562Z,3.51
2023-01-23T02:42:02.693Z,3.48
2023-01-23T02:47:19.373Z,3.49
2023-01-23T02:52:23.374Z,3.47
2023-01-23T02:57:25.998Z,3.47
2023-01-23T03:02:28.112Z,3.47
2023-01-23T03:07:30.183Z,3.51
2023-01-23T03:12:33.040Z,3.48
2023-01-23T03:17:36.827Z,3.47
2023-01-23T03:22:39.623Z,3.51
2023-01-23T03:27:43.690Z,3.49
2023-01-23T03:32:46.606Z,3.53
2023-01-23T03:37:50.951Z,3.52
2023-01-23T03:42:56.906Z,3.49
2023-01-23T03:48:02.597Z,3.49
2023-01-23T03:53:05.165Z,3.47
2023-01-23T03:58:10.046Z,3.40
2023-01-23T04:03:15.783Z,3.33
2023-01-23T04:08:18.106Z,3.24
2023-01-23T04:13:20.310Z,3.24
2023-01-23T04:18:23.659Z,3.24
2023-01-23T04:23:26.900Z,3.23
2023-01-23T04:28:32.517Z,3.17
2023-01-23T04:33:41.748Z,3.12
2023-01-23T04:38:44.484Z,3.05
2023-01-23T04:44:20.557Z,3.01
2023-01-23T04:50:05.251Z,3.01
2023-01-23T04:55:16.396Z,3.00
2023-01-23T05:00:19.885Z,2.98
2023-01-23T05:05:23.515Z,2.98
2023-01-23T05:10:27.815Z,2.95
2023-01-23T05:15:35.408Z,2.98
2023-01-23T05:20:38.687Z,2.90
2023-01-23T05:25:43.922Z,2.91
2023-01-23T05:30:51.728Z,2.93
2023-01-23T05:36:13.816Z,2.95
2023-01-23T05:41:19.638Z,2.93
2023-01-23T05:46:54.318Z,3.00
2023-01-23T05:51:57.351Z,2.97
2023-01-23T05:57:01.028Z,2.94
2023-01-23T06:02:15.566Z,2.96
2023-01-23T06:07:37.667Z,3.01
2023-01-23T06:12:41.771Z,2.99
2023-01-23T06:17:44.492Z,2.98
2023-01-23T06:22:47.548Z,3.02
2023-01-23T06:27:59.171Z,3.07
2023-01-23T06:33:03.153Z,3.10
2023-01-23T06:38:10.532Z,3.11
2023-01-23T06:43:13.769Z,3.05
2023-01-23T06:48:16.483Z,3.07
2023-01-23T06:53:19.649Z,3.06
2023-01-23T06:58:24.959Z,3.03
2023-01-23T07:03:28.393Z,3.03
2023-01-23T07:08:34.616Z,3.03
2023-01-23T07:13:38.290Z,3.05
2023-01-23T07:18:40.722Z,3.07
2023-01-23T07:23:43.745Z,3.15
2023-01-23T07:28:48.544Z,3.20
2023-01-23T07:33:50.876Z,3.25
2023-01-23T07:38:53.254Z,3.28
2023-01-23T07:43:59.164Z,3.28
2023-01-23T07:49:01.736Z,3.31
2023-01-23T07:54:03.951Z,3.30
2023-01-23T07:59:06.347Z,3.38
2023-01-23T08:04:08.814Z,3.51
2023-01-23T08:09:12.921Z,3.62
2023-01-23T08:14:24.974Z,3.67
2023-01-23T08:19:36.239Z,3.76
2023-01-23T08:24:38.404Z,3.83
2023-01-23T08:29:40.400Z,3.84
2023-01-23T08:34:45.295Z,3.88
2023-01-23T08:39:48.662Z,3.87
2023-01-23T08:44:50.726Z,3.81
2023-01-23T08:49:52.963Z,3.74
2023-01-23T08:54:54.935Z,3.67
2023-01-23T08:59:57.508Z,3.63
2023-01-23T09:04:59.427Z,3.62
2023-01-23T09:10:01.512Z,3.49
2023-01-23T09:15:04.974Z,3.57
2023-01-23T09:20:09.391Z,3.66
2023-01-23T09:25:14.543Z,3.72
2023-01-23T09:30:17.856Z,3.81
2023-01-23T09:35:24.366Z,3.92
2023-01-23T09:43:45.979Z,3.99
2023-01-23T09:49:50.207Z,4.07
2023-01-23T09:55:02.098Z,4.18
2023-01-23T10:00:30.850Z,4.25
2023-01-23T10:06:05.811Z,4.29
2023-01-23T10:11:26.426Z,4.35
2023-01-23T10:16:53.132Z,4.56
2023-01-23T10:22:28.808Z,4.63
2023-01-23T10:27:43.388Z,4.71
2023-01-23T10:32:52.883Z,4.74
2023-01-23T10:38:26.340Z,4.83
2023-01-23T10:43:28.520Z,4.92
2023-01-23T10:49:47.843Z,5.00
2023-01-23T10:54:50.717Z,4.98
2023-01-23T11:00:18.016Z,4.99
2023-01-23T11:05:52.835Z,5.00
2023-01-23T11:11:22.648Z,4.97
2023-01-23T11:16:30.734Z,4.87
2023-01-23T11:21:42.007Z,4.74
2023-01-23T11:26:46.262Z,4.56
2023-01-23T11:32:01.385Z,4.56
2023-01-23T11:37:17.647Z,4.53
2023-01-23T11:42:28.863Z,4.44
2023-01-23T11:48:00.825Z,4.38
2023-01-23T11:53:41.474Z,4.43
2023-01-23T11:59:17.031Z,4.55
2023-01-23T12:05:13.605Z,4.55
2023-01-23T12:11:09.428Z,4.49
2023-01-23T12:16:26.780Z,4.63
2023-01-23T12:21:59.162Z,4.61
2023-01-23T12:27:17.551Z,4.55
2023-01-23T12:32:58.181Z,4.53
2023-01-23T12:38:41.592Z,4.54
2023-01-23T12:43:54.235Z,4.55
2023-01-23T12:49:20.198Z,4.55
2023-01-23T12:54:36.773Z,4.69
2023-01-23T12:59:59.131Z,4.82
2023-01-23T13:05:16.244Z,4.89
2023-01-23T13:10:53.907Z,4.92
2023-01-23T13:16:14.820Z,4.94
2023-01-23T13:21:41.679Z,4.88
2023-01-23T13:26:44.643Z,4.89
2023-01-23T13:32:26.161Z,4.83
2023-01-23T13:37:39.190Z,4.74
2023-01-23T13:42:42.076Z,4.59
2023-01-23T13:48:15.770Z,4.50
2023-01-23T14:21:49.411Z,4.22
2023-01-23T14:27:09.575Z,4.15
2023-01-23T14:32:28.067Z,4.10
2023-01-23T14:37:35.247Z,4.06
2023-01-23T14:42:39.263Z,4.02
2023-01-23T14:47:50.881Z,3.98
2023-01-23T14:53:04.831Z,3.95
2023-01-23T14:58:23.986Z,3.91
2023-01-23T15:04:07.126Z,3.91
2023-01-23T15:09:21.308Z,3.88
2023-01-23T15:14:34.379Z,3.83
2023-01-23T15:19:45.986Z,3.73
2023-01-23T15:25:00.495Z,3.71
2023-01-23T15:30:45.384Z,3.72
2023-01-23T15:36:05.422Z,3.72
2023-01-23T15:41:30.132Z,3.67
2023-01-23T15:46:36.773Z,3.70
2023-01-23T15:51:44.959Z,3.69
2023-01-23T15:56:53.784Z,3.61
2023-01-23T16:02:29.639Z,3.62
2023-01-23T16:07:38.842Z,3.63
2023-01-23T16:12:48.977Z,3.69
2023-01-23T16:18:04.757Z,3.77
2023-01-23T16:23:39.126Z,3.74
2023-01-23T16:29:08.683Z,3.72
2023-01-23T16:34:21.513Z,3.85
2023-01-23T16:39:27.071Z,3.90
2023-01-23T16:44:34.564Z,3.93
2023-01-23T16:49:51.536Z,3.95
2023-01-23T16:54:55.841Z,3.93
2023-01-23T17:00:01.827Z,3.90
2023-01-23T17:05:11.770Z,3.84
2023-01-23T17:10:37.895Z,3.77
2023-01-23T17:15:50.058Z,3.82
2023-01-23T17:20:57.249Z,3.76
2023-01-23T17:26:01.537Z,3.81
2023-01-23T17:31:05.264Z,3.80
2023-01-23T17:36:08.132Z,3.74
2023-01-23T17:41:18.702Z,3.83
2023-01-23T17:46:28.003Z,3.80
2023-01-23T17:51:33.550Z,3.80
2023-01-23T17:56:38.771Z,3.77
2023-01-23T18:01:41.080Z,3.78
2023-01-23T18:06:46.588Z,3.77
2023-01-23T18:11:56.239Z,3.83
2023-01-23T18:17:02.164Z,3.87
2023-01-23T18:22:10.927Z,3.81
2023-01-23T18:27:29.813Z,3.78
2023-01-23T18:33:15.400Z,3.82
2023-01-23T18:39:01.915Z,3.75
2023-01-23T18:44:34.880Z,3.83
2023-01-23T18:49:42.927Z,3.81
2023-01-23T18:55:24.379Z,3.74
2023-01-23T19:00:49.685Z,3.69
2023-01-23T19:06:12.953Z,3.71
2023-01-23T19:11:54.627Z,3.77
2023-01-23T19:17:37.052Z,3.64
2023-01-23T19:22:53.493Z,3.60
2023-01-23T19:28:00.057Z,3.63
2023-01-23T19:33:03.285Z,3.65
2023-01-23T19:38:08.805Z,3.69
2023-01-23T19:43:17.862Z,3.65
2023-01-23T19:48:25.704Z,3.62
2023-01-23T19:53:33.296Z,3.61
2023-01-23T19:58:39.455Z,3.67
2023-01-23T20:03:46.468Z,3.58
2023-01-23T20:08:49.524Z,3.48
2023-01-23T20:13:58.032Z,3.53
2023-01-23T20:19:02.802Z,3.47
2023-01-23T20:24:07.256Z,3.49
2023-01-23T20:29:11.378Z,3.47
2023-01-23T20:34:36.999Z,3.40
2023-01-23T20:39:40.879Z,3.42
2023-01-23T20:44:48.863Z,3.43
2023-01-23T20:49:51.396Z,3.40
2023-01-23T20:55:07.174Z,3.49
2023-01-23T21:00:13.927Z,3.45
2023-01-23T21:05:16.685Z,3.43
2023-01-23T21:10:28.741Z,3.46
2023-01-23T21:15:34.810Z,3.47
2023-01-23T21:20:41.301Z,3.48
2023-01-23T21:26:03.484Z,3.46
2023-01-23T21:31:19.072Z,3.45
2023-01-23T21:36:28.340Z,3.45
2023-01-23T21:41:33.287Z,3.51
2023-01-23T21:46:36.896Z,3.48
2023-01-23T21:51:44.689Z,3.43
2023-01-23T21:56:50.839Z,3.43
2023-01-23T22:01:56.266Z,3.50
2023-01-23T22:07:01.947Z,3.50
2023-01-23T22:12:04.906Z,3.51
2023-01-23T22:17:15.114Z,3.51
2023-01-23T22:22:32.649Z,3.45
2023-01-23T22:27:37.776Z,3.45
2023-01-23T22:32:47.549Z,3.48
2023-01-23T22:37:56.017Z,3.45
2023-01-23T22:43:03.834Z,3.46
2023-01-23T22:48:07.229Z,3.48
2023-01-23T22:53:11.684Z,3.50
2023-01-23T22:58:23.612Z,3.55
2023-01-23T23:03:27.545Z,3.50
2023-01-23T23:08:30.591Z,3.57
2023-01-23T23:13:40.849Z,3.59
2023-01-23T23:18:44.496Z,3.63
2023-01-23T23:23:50.441Z,3.62
2023-01-23T23:29:03.840Z,3.67
2023-01-23T23:34:06.762Z,3.70
2023-01-23T23:39:10.272Z,3.71
2023-01-23T23:44:12.900Z,3.69
2023-01-23T23:49:22.040Z,3.74
2023-01-23T23:54:27.929Z,3.80
2023-01-23T23:59:33.889Z,3.69
